Time;durP1;ratioP1;P1;durP2;ratioP2;P2;SDS_P1;SDS_P2;PMS_P1;PMS_P2;Temp;Humidity;BMP_temperature;BMP_pressure;BME280_temperature;BME280_humidity;BME280_pressure;Samples;Min_cycle;Max_cycle;Signal;HPM_P1;HPM_P2
2021/09/11 00:02:10;;;;;;;;;8.00;5.25;;;;;18.51;71.44;100912.19;5077892;27;45248;-64
2021/09/11 00:04:37;;;;;;;;;5.75;5.75;;;;;18.52;71.45;100919.22;5078014;27;45614;-63
2021/09/11 00:07:02;;;;;;;;;8.00;4.75;;;;;18.49;71.13;100912.31;5077152;28;45410;-64
2021/09/11 00:09:28;;;;;;;;;10.00;8.75;;;;;18.53;71.26;100918.25;5077306;27;45217;-64
2021/09/11 00:11:53;;;;;;;;;5.75;5.25;;;;;18.48;71.20;100913.25;5076135;27;45319;-63
2021/09/11 00:14:18;;;;;;;;;6.00;5.25;;;;;18.53;71.21;100919.13;5078167;27;45571;-65
2021/09/11 00:16:44;;;;;;;;;7.50;5.75;;;;;18.53;71.51;100927.13;5076980;27;46216;-65
2021/09/11 00:19:09;;;;;;;;;6.00;5.00;;;;;18.51;71.31;100929.03;5075794;28;45450;-65
2021/09/11 00:21:35;;;;;;;;;8.25;5.50;;;;;18.46;71.37;100916.97;5077246;27;45358;-64
2021/09/11 00:24:00;;;;;;;;;3.75;3.50;;;;;18.42;71.23;100920.81;5077297;27;45592;-63
2021/09/11 00:26:25;;;;;;;;;4.00;4.00;;;;;18.39;71.04;100920.06;5076982;27;45495;-65
2021/09/11 00:28:51;;;;;;;;;6.25;5.00;;;;;18.38;71.04;100913.03;5076834;27;45337;-65
2021/09/11 00:31:17;;;;;;;;;5.00;5.00;;;;;18.32;70.95;100910.78;5077048;27;45413;-66
2021/09/11 00:33:43;;;;;;;;;6.75;5.75;;;;;18.38;71.32;100914.84;5075945;28;45382;-64
2021/09/11 00:36:08;;;;;;;;;7.00;5.00;;;;;18.36;70.95;100906.13;5076276;27;46681;-64
2021/09/11 00:38:34;;;;;;;;;6.50;5.25;;;;;18.36;70.96;100909.63;5077012;27;45392;-65
2021/09/11 00:40:59;;;;;;;;;6.75;5.00;;;;;18.38;71.15;100913.03;5077028;27;45338;-64
2021/09/11 00:43:26;;;;;;;;;5.00;5.00;;;;;18.35;71.10;100910.56;5077233;27;45506;-64
2021/09/11 00:45:52;;;;;;;;;8.00;5.25;;;;;18.35;71.12;100915.06;5076774;28;46179;-63
2021/09/11 00:48:18;;;;;;;;;5.00;5.00;;;;;18.34;70.30;100908.88;5076491;27;45242;-65
2021/09/11 00:50:45;;;;;;;;;5.25;5.25;;;;;18.30;70.57;100911.84;5076580;27;45373;-64
2021/09/11 00:53:13;;;;;;;;;4.25;4.25;;;;;18.28;70.51;100908.44;5077313;27;45985;-64
2021/09/11 00:55:42;;;;;;;;;5.75;4.50;;;;;18.27;70.66;100915.56;5076667;27;46210;-63
2021/09/11 00:58:07;;;;;;;;;4.75;4.75;;;;;18.25;70.24;100909.50;5076765;27;45325;-63
2021/09/11 01:00:33;;;;;;;;;4.50;4.25;;;;;18.23;69.84;100917.59;5076610;27;45304;-65
2021/09/11 01:02:58;;;;;;;;;4.75;4.75;;;;;18.21;69.64;100918.66;5076761;27;45685;-63
2021/09/11 01:05:24;;;;;;;;;7.25;4.50;;;;;18.18;69.45;100924.19;5076258;28;45658;-65
2021/09/11 01:07:49;;;;;;;;;8.00;5.00;;;;;18.15;69.62;100922.59;5074849;28;45545;-63
2021/09/11 01:10:16;;;;;;;;;5.00;4.00;;;;;18.12;69.66;100925.47;5076527;27;45371;-64
2021/09/11 01:12:42;;;;;;;;;4.75;4.75;;;;;18.07;69.89;100923.09;5077116;27;45295;-65
2021/09/11 01:15:11;;;;;;;;;4.00;4.00;;;;;18.10;70.07;100924.72;5076201;27;45442;-64
2021/09/11 01:17:39;;;;;;;;;4.25;4.25;;;;;18.09;70.12;100923.00;5075930;28;45333;-63
2021/09/11 01:20:06;;;;;;;;;6.25;5.00;;;;;18.06;69.64;100917.88;5075839;27;45369;-63
2021/09/11 01:22:31;;;;;;;;;6.00;4.50;;;;;18.03;69.51;100924.25;5075748;27;45352;-63
2021/09/11 01:25:00;;;;;;;;;4.00;4.00;;;;;18.04;69.83;100927.78;5076056;27;45859;-64
2021/09/11 01:27:27;;;;;;;;;5.00;5.00;;;;;18.07;69.63;100940.88;5075804;27;45403;-64
2021/09/11 01:29:54;;;;;;;;;6.00;5.50;;;;;18.08;70.40;100940.75;5074204;28;45184;-64
2021/09/11 01:32:20;;;;;;;;;5.00;4.25;;;;;18.07;69.87;100939.06;5075848;27;45485;-64
2021/09/11 01:34:45;;;;;;;;;4.00;4.00;;;;;18.06;70.01;100936.50;5075469;27;46781;-65
2021/09/11 01:37:11;;;;;;;;;4.00;4.00;;;;;18.02;69.88;100927.88;5074793;28;45815;-64
2021/09/11 01:39:37;;;;;;;;;5.00;4.50;;;;;18.03;69.80;100931.41;5075808;27;45412;-64
2021/09/11 01:42:04;;;;;;;;;6.00;4.25;;;;;17.99;69.67;100927.16;5075857;27;45436;-63
2021/09/11 01:44:30;;;;;;;;;4.25;4.25;;;;;17.94;69.34;100941.63;5075922;27;45383;-64
2021/09/11 01:46:55;;;;;;;;;4.50;4.50;;;;;17.87;69.37;100943.00;5075428;27;45320;-64
2021/09/11 01:49:20;;;;;;;;;4.00;4.00;;;;;17.79;69.40;100935.53;5075792;27;45715;-64
2021/09/11 01:51:46;;;;;;;;;4.25;4.00;;;;;17.75;69.53;100936.69;5075921;27;45347;-63
2021/09/11 01:54:12;;;;;;;;;6.25;5.00;;;;;17.71;69.68;100936.97;5075641;27;45614;-64
2021/09/11 01:56:37;;;;;;;;;3.50;3.50;;;;;17.71;69.83;100939.63;5075524;27;45460;-64
2021/09/11 01:59:02;;;;;;;;;5.00;5.00;;;;;17.66;70.04;100940.78;5075707;27;45152;-64
2021/09/11 02:01:28;;;;;;;;;3.75;3.75;;;;;17.63;69.92;100935.66;5075900;27;45587;-64
2021/09/11 02:03:53;;;;;;;;;4.00;4.00;;;;;17.58;69.95;100928.94;5075324;27;46106;-64
2021/09/11 02:06:18;;;;;;;;;5.00;4.00;;;;;17.56;70.17;100931.69;5073940;28;45811;-64
2021/09/11 02:08:44;;;;;;;;;4.75;3.50;;;;;17.51;69.88;100933.78;5075743;27;45356;-65
2021/09/11 02:11:09;;;;;;;;;5.00;3.50;;;;;17.46;69.57;100936.72;5075660;27;45602;-63
2021/09/11 02:13:34;;;;;;;;;3.00;3.00;;;;;17.44;69.60;100940.44;5075140;27;46003;-64
2021/09/11 02:16:02;;;;;;;;;5.00;5.00;;;;;17.38;69.69;100937.22;5073615;28;45292;-63
2021/09/11 02:18:27;;;;;;;;;4.00;4.00;;;;;17.34;69.86;100934.84;5073681;27;45416;-63
2021/09/11 02:20:55;;;;;;;;;4.75;3.50;;;;;17.33;69.97;100944.63;5075042;27;45532;-64
2021/09/11 02:23:21;;;;;;;;;4.25;4.25;;;;;17.30;69.54;100944.84;5073727;28;47986;-63
2021/09/11 02:25:46;;;;;;;;;5.00;5.00;;;;;17.29;69.71;100944.91;5075001;28;45303;-64
2021/09/11 02:28:11;;;;;;;;;3.25;3.25;;;;;17.25;69.50;100938.94;5075224;27;45602;-64
2021/09/11 02:30:37;;;;;;;;;4.75;2.75;;;;;17.21;69.96;100932.13;5075130;27;45501;-64
2021/09/11 02:33:03;;;;;;;;;3.50;3.50;;;;;17.20;69.82;100941.03;5074825;27;46021;-65
2021/09/11 02:35:28;;;;;;;;;3.00;3.00;;;;;17.17;69.87;100927.94;5074821;27;45699;-63
2021/09/11 02:37:53;;;;;;;;;5.75;5.75;;;;;17.15;70.08;100932.50;5075124;27;45729;-63
2021/09/11 02:40:19;;;;;;;;;5.00;5.00;;;;;17.14;70.15;100930.78;5075383;27;45258;-64
2021/09/11 02:42:44;;;;;;;;;4.25;3.00;;;;;17.13;70.48;100926.44;5075137;28;46419;-65
2021/09/11 02:45:10;;;;;;;;;3.25;3.00;;;;;17.12;70.21;100933.53;5075324;27;45391;-64
2021/09/11 02:47:35;;;;;;;;;4.75;4.75;;;;;17.08;70.43;100919.59;5090926;27;45394;-65
2021/09/11 02:50:00;;;;;;;;;5.25;4.00;;;;;17.10;70.36;100931.94;5075072;27;45383;-65
2021/09/11 02:52:26;;;;;;;;;4.00;3.50;;;;;17.07;70.42;100923.22;5074521;28;45463;-66
2021/09/11 02:54:51;;;;;;;;;3.75;3.50;;;;;17.08;70.42;100921.38;5074710;27;45407;-65
2021/09/11 02:57:17;;;;;;;;;5.00;4.50;;;;;17.06;70.38;100929.47;5075551;27;45382;-64
2021/09/11 02:59:42;;;;;;;;;4.25;3.75;;;;;17.04;70.91;100923.41;5078549;28;45439;-65
2021/09/11 03:02:07;;;;;;;;;4.25;3.00;;;;;17.03;70.87;100923.47;5078264;27;46033;-63
2021/09/11 03:04:33;;;;;;;;;4.00;4.00;;;;;17.04;70.88;100925.19;5078012;27;45501;-64
2021/09/11 03:06:58;;;;;;;;;7.00;5.00;;;;;17.04;70.82;100925.19;5078325;27;45364;-65
2021/09/11 03:09:24;;;;;;;;;4.00;4.00;;;;;17.06;70.79;100928.59;5078485;27;45485;-64
2021/09/11 03:11:49;;;;;;;;;4.75;4.75;;;;;17.06;70.82;100926.81;5077873;27;46138;-63
2021/09/11 03:14:15;;;;;;;;;5.00;5.00;;;;;17.00;70.91;100926.31;5078531;27;45457;-64
2021/09/11 03:16:40;;;;;;;;;4.00;4.00;;;;;17.01;70.60;100926.25;5078445;27;45343;-63
2021/09/11 03:19:06;;;;;;;;;7.75;6.00;;;;;17.00;70.69;100921.00;5077360;28;45244;-64
2021/09/11 03:21:31;;;;;;;;;7.00;4.25;;;;;16.99;70.83;100925.50;5077982;27;45486;-64
2021/09/11 03:23:57;;;;;;;;;4.50;3.00;;;;;16.96;70.78;100922.13;5077975;28;45350;-64
2021/09/11 03:26:22;;;;;;;;;4.00;3.25;;;;;16.96;70.39;100924.78;5078010;27;45209;-64
2021/09/11 03:28:48;;;;;;;;;5.00;3.50;;;;;16.91;70.55;100917.06;5078615;27;45279;-64
2021/09/11 03:31:13;;;;;;;;;4.25;2.50;;;;;16.87;70.42;100913.78;5077615;27;45308;-64
2021/09/11 03:33:38;;;;;;;;;5.50;3.00;;;;;16.88;70.21;100918.13;5078031;27;45752;-64
2021/09/11 03:36:04;;;;;;;;;3.50;3.00;;;;;16.82;70.22;100921.16;5078648;27;45811;-64
2021/09/11 03:38:30;;;;;;;;;2.00;2.00;;;;;16.77;70.32;100924.09;5078583;27;45440;-65
2021/09/11 03:40:55;;;;;;;;;3.00;3.00;;;;;16.76;70.43;100917.06;5077819;27;46256;-63
2021/09/11 03:43:20;;;;;;;;;2.00;2.00;;;;;16.78;70.37;100927.63;5077394;27;45488;-63
2021/09/11 03:45:46;;;;;;;;;2.75;2.75;;;;;16.74;70.46;100924.28;5078004;27;45845;-65
2021/09/11 03:48:11;;;;;;;;;4.00;2.50;;;;;16.73;70.42;100919.06;5077626;27;45275;-63
2021/09/11 03:50:36;;;;;;;;;6.25;2.25;;;;;16.72;70.60;100920.88;5077178;27;46356;-64
2021/09/11 03:53:02;;;;;;;;;2.00;2.00;;;;;16.70;70.34;100922.75;5077168;27;45328;-64
2021/09/11 03:55:28;;;;;;;;;4.00;3.00;;;;;16.70;70.42;100936.03;5077511;27;45297;-64
2021/09/11 03:57:53;;;;;;;;;3.00;3.00;;;;;16.68;70.38;100932.63;5077583;27;45473;-64
2021/09/11 04:00:19;;;;;;;;;3.00;3.00;;;;;16.65;70.40;100935.47;5077634;27;45359;-64
2021/09/11 04:02:44;;;;;;;;;3.50;3.00;;;;;16.66;70.46;100937.16;5077212;27;45401;-63
2021/09/11 04:05:10;;;;;;;;;3.25;3.00;;;;;16.63;70.73;100930.25;5077281;27;45250;-65
2021/09/11 04:07:35;;;;;;;;;3.00;2.00;;;;;16.65;70.79;100938.13;5077491;27;45166;-63
2021/09/11 04:10:01;;;;;;;;;4.00;2.75;;;;;16.62;70.91;100935.66;5076832;27;45515;-64
2021/09/11 04:12:26;;;;;;;;;2.50;2.50;;;;;16.62;70.99;100944.47;5092898;27;45251;-64
2021/09/11 04:14:52;;;;;;;;;3.50;2.00;;;;;16.57;70.98;100927.09;5077030;27;45283;-64
2021/09/11 04:17:17;;;;;;;;;4.25;2.00;;;;;16.58;71.24;100937.66;5077772;27;45252;-64
2021/09/11 04:19:42;;;;;;;;;4.50;3.75;;;;;16.57;71.28;100938.59;5076755;27;45361;-64
2021/09/11 04:22:07;;;;;;;;;4.00;2.75;;;;;16.58;71.14;100936.78;5077028;27;45269;-64
2021/09/11 04:24:33;;;;;;;;;3.50;3.00;;;;;16.56;71.25;100933.34;5076995;27;45283;-63
2021/09/11 04:26:58;;;;;;;;;4.00;2.75;;;;;16.55;71.27;100943.16;5077360;27;45172;-64
2021/09/11 04:29:24;;;;;;;;;2.25;2.25;;;;;16.49;71.17;100939.03;5076747;27;46239;-63
2021/09/11 04:31:49;;;;;;;;;2.25;2.25;;;;;16.50;71.29;100939.91;5077197;27;45621;-66
2021/09/11 04:34:14;;;;;;;;;4.00;2.25;;;;;16.47;71.27;100946.25;5077004;27;45742;-65
2021/09/11 04:36:40;;;;;;;;;1.75;1.25;;;;;16.40;71.22;100931.63;5077026;27;45409;-64
2021/09/11 04:39:05;;;;;;;;;2.00;2.00;;;;;16.44;71.24;100935.81;5075417;28;46498;-64
2021/09/11 04:41:31;;;;;;;;;3.00;2.00;;;;;16.37;71.30;100926.50;5075459;28;45519;-64
2021/09/11 04:43:56;;;;;;;;;2.25;2.00;;;;;16.41;70.97;100935.97;5076771;27;45286;-63
2021/09/11 04:46:21;;;;;;;;;3.00;3.00;;;;;16.39;71.29;100927.25;5077095;27;45283;-63
2021/09/11 04:48:47;;;;;;;;;2.00;1.00;;;;;16.39;71.11;100940.53;5076594;27;45464;-63
2021/09/11 04:51:12;;;;;;;;;2.00;2.00;;;;;16.38;71.02;100944.13;5076716;27;45346;-64
2021/09/11 04:53:38;;;;;;;;;2.75;2.50;;;;;16.33;71.38;100943.56;5076850;27;45867;-64
2021/09/11 04:56:03;;;;;;;;;2.25;2.25;;;;;16.33;71.17;100947.03;5075461;27;45636;-65
2021/09/11 04:58:29;;;;;;;;;5.00;3.00;;;;;16.31;71.50;100948.94;5076373;27;45502;-63
2021/09/11 05:00:54;;;;;;;;;4.00;3.50;;;;;16.32;71.59;100953.28;5076392;27;45288;-63
2021/09/11 05:03:20;;;;;;;;;2.75;2.50;;;;;16.32;71.68;100950.66;5077123;27;45239;-64
2021/09/11 05:05:45;;;;;;;;;2.00;2.00;;;;;16.30;71.35;100951.69;5076767;27;45229;-64
2021/09/11 05:08:12;;;;;;;;;2.00;2.00;;;;;16.30;71.36;100955.19;5076308;27;45365;-64
2021/09/11 05:10:37;;;;;;;;;4.00;2.00;;;;;16.28;71.27;100956.25;5076462;27;45248;-64
2021/09/11 05:13:02;;;;;;;;;5.00;3.75;;;;;16.27;71.44;100960.69;5092345;27;45329;-65
2021/09/11 05:15:28;;;;;;;;;4.25;2.25;;;;;16.24;71.55;100960.00;5076750;27;45343;-65
2021/09/11 05:17:53;;;;;;;;;6.00;3.00;;;;;16.23;71.52;100964.44;5092278;27;45413;-62
2021/09/11 05:20:18;;;;;;;;;2.00;2.00;;;;;16.18;71.69;100959.44;5076005;27;45341;-65
2021/09/11 05:22:44;;;;;;;;;2.00;2.00;;;;;16.19;71.76;100958.47;5075631;27;45650;-65
2021/09/11 05:25:10;;;;;;;;;4.25;3.75;;;;;16.15;72.06;100949.00;5076548;27;45541;-64
2021/09/11 05:27:36;;;;;;;;;12.00;11.00;;;;;16.20;71.72;100959.31;5076361;27;47008;-64
2021/09/11 05:30:03;;;;;;;;;3.00;3.00;;;;;16.11;71.92;100949.25;5076200;27;45416;-64
2021/09/11 05:32:29;;;;;;;;;9.75;7.25;;;;;16.20;71.88;100961.97;5076075;27;45300;-64
2021/09/11 05:34:54;;;;;;;;;5.00;3.00;;;;;16.18;72.08;100961.22;5092302;27;45364;-65
2021/09/11 05:37:20;;;;;;;;;3.00;3.00;;;;;16.23;71.90;100964.44;5075876;27;46109;-67
2021/09/11 05:39:45;;;;;;;;;2.00;2.00;;;;;16.25;71.80;100967.03;5074551;28;45415;-66
2021/09/11 05:42:11;;;;;;;;;5.25;5.00;;;;;16.24;71.92;100960.00;5074602;27;45287;-64
2021/09/11 05:44:37;;;;;;;;;13.00;13.00;;;;;16.26;71.82;100966.09;5074747;28;45346;-64
2021/09/11 05:47:03;;;;;;;;;10.75;8.75;;;;;16.27;71.62;100967.81;5073911;28;46955;-64
2021/09/11 05:49:28;;;;;;;;;3.25;3.25;;;;;16.27;71.51;100975.75;5074299;28;45372;-64
2021/09/11 05:51:54;;;;;;;;;3.75;3.00;;;;;16.29;71.64;100976.53;5076040;27;45174;-66
2021/09/11 05:54:20;;;;;;;;;4.00;4.00;;;;;16.31;71.49;100982.59;5076045;27;45352;-65
2021/09/11 05:56:45;;;;;;;;;2.00;2.00;;;;;16.33;71.40;100978.06;5075465;27;45373;-66
2021/09/11 05:59:11;;;;;;;;;2.00;2.00;;;;;16.33;71.18;100980.72;5075493;27;45352;-64
2021/09/11 06:01:36;;;;;;;;;3.50;2.00;;;;;16.33;71.33;100981.56;5075459;27;45329;-64
2021/09/11 06:04:02;;;;;;;;;3.75;3.25;;;;;16.40;71.31;101000.66;5075541;27;45362;-65
2021/09/11 06:06:27;;;;;;;;;2.00;2.00;;;;;16.39;71.32;101001.59;5075203;27;46504;-63
2021/09/11 06:08:54;;;;;;;;;5.00;3.50;;;;;16.40;71.21;100994.47;5075740;27;45278;-64
2021/09/11 06:11:19;;;;;;;;;3.00;2.25;;;;;16.46;71.11;101002.94;5075725;27;45295;-64
2021/09/11 06:13:45;;;;;;;;;3.25;2.75;;;;;16.48;70.85;101009.03;5074257;28;45156;-65
2021/09/11 06:16:10;;;;;;;;;4.50;4.00;;;;;16.50;70.63;101007.13;5075492;27;45451;-64
2021/09/11 06:18:35;;;;;;;;;2.75;2.75;;;;;16.49;70.51;101007.25;5073831;27;45326;-65
2021/09/11 06:21:01;;;;;;;;;4.75;3.25;;;;;16.56;70.50;101021.00;5075202;27;45282;-65
2021/09/11 06:23:27;;;;;;;;;5.00;2.00;;;;;16.55;70.37;101001.56;5075671;27;45667;-65
2021/09/11 06:25:53;;;;;;;;;5.25;4.00;;;;;16.63;70.33;101014.38;5075556;27;46422;-66
2021/09/11 06:28:21;;;;;;;;;3.00;2.75;;;;;16.66;70.23;101016.84;5075000;27;45166;-66
2021/09/11 06:30:47;;;;;;;;;5.00;2.25;;;;;16.69;70.03;101019.31;5074967;27;45310;-66
2021/09/11 06:33:12;;;;;;;;;4.25;3.00;;;;;16.71;70.09;101020.09;5072733;27;45584;-65
2021/09/11 06:35:37;;;;;;;;;3.00;1.25;;;;;16.73;69.92;101025.31;5075181;27;46237;-66
2021/09/11 06:38:03;;;;;;;;;2.75;2.00;;;;;16.77;69.80;101027.69;5075132;27;45402;-64
2021/09/11 06:40:28;;;;;;;;;2.25;1.00;;;;;16.82;69.73;101027.44;5075568;27;45705;-65
2021/09/11 06:42:54;;;;;;;;;2.00;1.75;;;;;16.88;69.31;101024.41;5075466;28;45249;-65
2021/09/11 06:45:19;;;;;;;;;1.00;1.00;;;;;16.94;69.34;101029.34;5074825;27;46217;-64
2021/09/11 06:47:44;;;;;;;;;2.25;1.00;;;;;17.00;69.33;101022.88;5074877;27;45222;-64
2021/09/11 06:50:11;;;;;;;;;2.00;2.00;;;;;17.08;69.02;101015.28;5074909;27;45231;-66
2021/09/11 06:52:36;;;;;;;;;1.00;1.00;;;;;17.22;68.67;101026.88;5075145;27;45272;-64
2021/09/11 06:55:02;;;;;;;;;2.00;2.00;;;;;17.30;68.47;101029.91;5074579;28;45721;-64
2021/09/11 06:57:28;;;;;;;;;2.00;2.00;;;;;17.36;68.05;101024.22;5075160;28;45258;-65
2021/09/11 06:59:53;;;;;;;;;3.00;2.50;;;;;17.42;67.80;101019.47;5074874;27;45211;-65
2021/09/11 07:02:18;;;;;;;;;3.00;2.00;;;;;17.58;67.72;101027.34;5074959;27;45183;-65
2021/09/11 07:04:44;;;;;;;;;2.00;2.00;;;;;17.76;67.17;101035.97;5074608;27;45408;-65
2021/09/11 07:07:09;;;;;;;;;2.75;2.25;;;;;17.88;66.45;101034.34;5074761;27;45474;-64
2021/09/11 07:09:35;;;;;;;;;2.00;2.00;;;;;17.92;66.13;101036.69;5073254;28;45379;-65
2021/09/11 07:12:01;;;;;;;;;0.75;0.75;;;;;17.88;65.48;101037.84;5074828;27;45404;-64
2021/09/11 07:14:26;;;;;;;;;3.50;2.00;;;;;17.85;65.27;101045.19;5075029;27;46530;-65
2021/09/11 07:16:52;;;;;;;;;1.50;1.50;;;;;17.73;65.42;101041.47;5074458;27;45297;-64
2021/09/11 07:19:17;;;;;;;;;1.25;1.25;;;;;17.66;65.62;101044.53;5075045;27;45360;-66
2021/09/11 07:21:42;;;;;;;;;2.50;1.00;;;;;17.59;65.75;101042.34;5075109;27;45613;-65
2021/09/11 07:24:08;;;;;;;;;2.00;2.00;;;;;17.62;65.66;101052.81;5074741;27;45420;-65
2021/09/11 07:26:33;;;;;;;;;2.75;1.00;;;;;17.57;65.66;101050.41;5074216;27;45335;-65
2021/09/11 07:28:59;;;;;;;;;3.50;1.25;;;;;17.59;65.34;101051.19;5074943;27;45369;-65
2021/09/11 07:31:24;;;;;;;;;1.75;1.75;;;;;17.55;65.71;101048.81;5074504;27;45432;-66
2021/09/11 07:33:50;;;;;;;;;2.50;2.00;;;;;17.59;65.45;101048.50;5074224;27;45325;-64
2021/09/11 07:36:16;;;;;;;;;1.00;1.00;;;;;17.55;65.08;101047.00;5074133;27;45361;-66
2021/09/11 07:38:41;;;;;;;;;1.00;0.25;;;;;17.58;64.83;101054.78;5074687;27;45319;-67
2021/09/11 07:41:07;;;;;;;;;1.00;1.00;;;;;17.56;65.02;101062.00;5074339;27;45458;-65
2021/09/11 07:43:32;;;;;;;;;1.25;1.25;;;;;17.55;65.52;101043.50;5074008;27;45423;-65
2021/09/11 07:45:58;;;;;;;;;2.50;2.25;;;;;17.63;65.33;101042.06;5076513;28;45254;-66
2021/09/11 07:48:24;;;;;;;;;3.50;1.75;;;;;17.73;65.19;101058.31;5078207;27;45275;-65
2021/09/11 07:50:49;;;;;;;;;2.00;1.00;;;;;17.83;64.56;101052.41;5075981;28;45592;-65
2021/09/11 07:53:15;;;;;;;;;1.00;1.00;;;;;17.89;64.08;101054.66;5075840;28;47779;-65
2021/09/11 07:55:41;;;;;;;;;0.75;0.75;;;;;17.92;64.42;101049.16;5075961;28;45401;-64
2021/09/11 07:58:07;;;;;;;;;2.50;1.00;;;;;17.98;63.80;101048.75;5075779;28;45333;-65
2021/09/11 08:00:32;;;;;;;;;3.00;2.25;;;;;18.05;63.68;101055.44;5077737;27;45436;-64
2021/09/11 08:02:58;;;;;;;;;3.50;2.00;;;;;18.12;63.69;101058.56;5077615;28;46480;-64
2021/09/11 08:05:24;;;;;;;;;2.00;2.00;;;;;18.22;63.70;101061.47;5075608;28;45388;-65
2021/09/11 08:07:50;;;;;;;;;1.75;1.00;;;;;18.25;63.14;101062.13;5076126;27;45489;-65
2021/09/11 08:10:16;;;;;;;;;1.00;1.00;;;;;18.25;62.59;101058.59;5093401;27;45452;-64
2021/09/11 08:12:42;;;;;;;;;1.50;1.50;;;;;18.28;62.31;101062.88;5077250;27;45373;-64
2021/09/11 08:15:09;;;;;;;;;4.00;2.50;;;;;18.38;62.36;101077.31;5075565;28;45263;-65
2021/09/11 08:17:35;;;;;;;;;2.75;2.00;;;;;18.42;61.81;101077.94;5077612;27;45413;-64
2021/09/11 08:20:01;;;;;;;;;3.00;2.00;;;;;18.47;61.24;101082.03;5077959;27;45430;-63
2021/09/11 08:22:26;;;;;;;;;2.25;2.00;;;;;18.49;60.85;101076.59;5077118;28;45456;-65
2021/09/11 08:24:53;;;;;;;;;1.00;1.00;;;;;18.52;60.76;101084.38;5075747;28;45268;-63
2021/09/11 08:27:19;;;;;;;;;3.25;1.00;;;;;18.56;60.80;101083.25;5076244;27;45436;-63
2021/09/11 08:29:45;;;;;;;;;3.00;1.00;;;;;18.59;60.25;101091.03;5077530;28;46066;-64
2021/09/11 08:32:10;;;;;;;;;1.75;1.00;;;;;18.60;60.29;101087.41;5077187;27;45543;-65
2021/09/11 08:34:36;;;;;;;;;1.50;1.50;;;;;18.72;60.71;101098.22;5077849;27;45298;-65
2021/09/11 08:37:01;;;;;;;;;0.00;0.00;;;;;18.83;60.12;101085.88;5078119;27;45283;-65
2021/09/11 08:39:27;;;;;;;;;4.25;2.00;;;;;18.93;60.19;101098.56;5076819;27;45310;-65
2021/09/11 08:41:54;;;;;;;;;3.00;3.00;;;;;18.96;59.89;101085.03;5077258;27;45865;-64
2021/09/11 08:44:26;;;;;;;;;3.00;2.00;;;;;19.17;59.59;101097.91;5077162;28;45227;-64
2021/09/11 08:46:52;;;;;;;;;2.25;2.25;;;;;19.27;59.76;101089.16;5075736;27;45188;-65
2021/09/11 08:49:18;;;;;;;;;3.00;2.00;;;;;19.37;60.07;101091.19;5075818;28;45331;-66
2021/09/11 08:51:44;;;;;;;;;2.50;2.00;;;;;19.55;59.18;101091.72;5076986;27;45326;-64
2021/09/11 08:54:09;;;;;;;;;3.00;3.00;;;;;19.64;58.94;101088.41;5076857;27;45403;-65
2021/09/11 08:56:39;;;;;;;;;2.50;2.00;;;;;19.75;58.98;101086.78;5074813;28;45486;-66
2021/09/11 08:59:09;;;;;;;;;1.00;1.00;;;;;19.82;57.99;101080.06;5076704;28;45472;-64
2021/09/11 09:01:37;;;;;;;;;3.00;2.00;;;;;19.94;57.93;101092.56;5077308;28;45266;-64
2021/09/11 09:04:04;;;;;;;;;4.25;2.50;;;;;19.97;57.68;101092.31;5077377;27;45331;-64
2021/09/11 09:06:32;;;;;;;;;4.00;2.00;;;;;20.05;57.87;101088.25;5076795;28;45374;-63
2021/09/11 09:09:14;;;;;;;;;3.00;3.00;;;;;20.17;57.46;101086.53;5076461;27;45239;-66
2021/09/11 09:11:44;;;;;;;;;1.50;1.50;;;;;20.27;57.08;101091.09;5074556;28;47166;-65
2021/09/11 09:14:11;;;;;;;;;5.25;3.00;;;;;20.46;56.76;101091.53;5074952;28;45428;-63
2021/09/11 09:16:44;;;;;;;;;2.00;2.00;;;;;20.58;55.67;101094.16;5076190;28;45249;-64
2021/09/11 09:19:12;;;;;;;;;2.00;2.00;;;;;20.63;55.71;101100.97;5076748;27;45219;-64
2021/09/11 09:21:40;;;;;;;;;3.00;1.00;;;;;20.60;54.98;101102.03;5091332;27;47766;-64
2021/09/11 09:24:07;;;;;;;;;3.00;2.00;;;;;20.56;54.35;101097.88;5076489;27;45301;-64
2021/09/11 09:26:56;;;;;;;;;3.00;2.00;;;;;20.55;54.29;101091.72;5076682;27;45315;-65
2021/09/11 09:29:22;;;;;;;;;2.50;2.00;;;;;20.61;54.22;101093.06;5076242;27;45412;-64
2021/09/11 09:31:53;;;;;;;;;4.00;2.00;;;;;20.56;53.00;101074.72;5075923;27;45357;-64
2021/09/11 09:34:32;;;;;;;;;3.00;3.00;;;;;20.75;53.10;101092.03;5076100;27;45349;-65
2021/09/11 09:37:01;;;;;;;;;2.25;2.25;;;;;20.78;53.83;101094.50;5076410;27;45377;-64
2021/09/11 09:39:28;;;;;;;;;3.00;3.00;;;;;20.83;53.18;101091.50;5076185;27;45913;-63
2021/09/11 09:42:00;;;;;;;;;1.00;1.00;;;;;20.91;53.17;101093.56;5075942;28;45285;-65
2021/09/11 09:44:26;;;;;;;;;2.00;2.00;;;;;20.91;52.02;101093.56;5075978;27;45416;-65
2021/09/11 09:46:51;;;;;;;;;1.25;1.25;;;;;20.89;52.08;101088.34;5076061;27;45326;-66
2021/09/11 09:49:19;;;;;;;;;5.00;2.50;;;;;20.86;52.13;101091.25;5076026;27;45274;-64
2021/09/11 09:51:46;;;;;;;;;0.00;0.00;;;;;20.86;52.36;101086.75;5074225;28;47167;-66
2021/09/11 09:54:13;;;;;;;;;2.00;2.00;;;;;20.85;51.98;101087.72;5075170;27;45429;-66
2021/09/11 09:56:38;;;;;;;;;2.25;2.25;;;;;20.94;52.32;101085.31;5075525;27;45279;-65
2021/09/11 09:59:04;;;;;;;;;2.50;2.00;;;;;20.97;52.27;101083.28;5076101;27;45280;-65
2021/09/11 10:01:33;;;;;;;;;3.25;2.75;;;;;20.98;52.46;101078.75;5075060;27;45459;-64
2021/09/11 10:04:15;;;;;;;;;7.00;2.50;;;;;21.01;51.51;101078.53;5074119;28;46023;-65
2021/09/11 10:06:44;;;;;;;;;2.50;2.00;;;;;21.03;51.69;101087.28;5075157;27;45265;-65
2021/09/11 10:09:14;;;;;;;;;3.50;2.00;;;;;20.99;51.90;101083.16;5074180;28;45634;-63
2021/09/11 10:11:42;;;;;;;;;2.00;2.00;;;;;20.95;51.59;101077.19;5075255;27;45551;-65
2021/09/11 10:14:13;;;;;;;;;5.25;3.25;;;;;20.83;51.68;101073.63;5075285;27;45389;-65
2021/09/11 10:16:41;;;;;;;;;4.00;3.00;;;;;21.00;51.59;101076.81;5075315;28;45438;-64
2021/09/11 10:19:25;;;;;;;;;2.00;2.00;;;;;21.21;51.99;101081.50;5075977;27;45417;-65
2021/09/11 10:22:12;;;;;;;;;2.75;2.75;;;;;21.39;51.52;101064.03;5073756;28;47118;-65
2021/09/11 10:24:37;;;;;;;;;2.00;2.00;;;;;21.55;50.35;101070.84;5066994;28;45267;-64
2021/09/11 10:27:09;;;;;;;;;2.00;2.00;;;;;21.63;50.64;101079.13;5075408;27;45253;-65
2021/09/11 10:29:40;;;;;;;;;2.75;2.75;;;;;21.73;50.67;101076.56;5075988;27;45225;-65
2021/09/11 10:32:12;;;;;;;;;3.50;2.00;;;;;21.94;50.27;101081.19;5073398;27;45394;-64
2021/09/11 10:35:01;;;;;;;;;4.75;3.25;;;;;22.10;49.56;101078.09;5074649;27;45186;-65
2021/09/11 10:37:51;;;;;;;;;3.00;2.00;;;;;22.26;49.27;101069.69;5073488;27;45372;-63
2021/09/11 10:40:46;;;;;;;;;3.00;3.00;;;;;22.51;49.49;101073.91;5075249;27;45176;-65
2021/09/11 10:43:32;;;;;;;;;4.00;4.00;;;;;22.84;48.94;101065.84;5069926;27;46531;-63
2021/09/11 10:46:02;;;;;;;;;2.00;1.00;;;;;23.14;48.05;101072.22;5072899;28;45291;-64
2021/09/11 10:48:44;;;;;;;;;3.00;3.00;;;;;23.41;47.00;101074.41;5074820;27;45528;-64
2021/09/11 10:51:29;;;;;;;;;4.25;3.00;;;;;23.69;47.18;101065.72;5073501;27;45490;-64
2021/09/11 10:54:07;;;;;;;;;6.00;4.00;;;;;23.93;46.36;101073.44;5074314;28;45516;-65
2021/09/11 10:56:34;;;;;;;;;5.75;3.25;;;;;23.94;46.32;101069.78;5089829;27;45306;-63
2021/09/11 10:59:15;;;;;;;;;2.00;2.00;;;;;23.99;45.36;101061.31;5073731;27;45418;-63
2021/09/11 11:01:58;;;;;;;;;3.75;3.75;;;;;23.81;45.44;101069.19;5075043;27;45362;-63
2021/09/11 11:04:29;;;;;;;;;5.50;4.00;;;;;23.73;45.19;101078.75;5090139;27;47565;-65
2021/09/11 11:06:56;;;;;;;;;3.75;2.00;;;;;23.57;45.91;101071.19;5089939;27;45471;-65
2021/09/11 11:09:22;;;;;;;;;4.25;4.00;;;;;23.58;45.78;101070.22;5074674;27;45347;-64
2021/09/11 11:11:49;;;;;;;;;5.25;4.75;;;;;23.66;45.75;101077.59;5074585;27;45457;-65
2021/09/11 11:14:16;;;;;;;;;6.00;4.75;;;;;23.67;46.15;101087.38;5074459;27;46770;-65
2021/09/11 11:17:00;;;;;;;;;1.75;1.75;;;;;23.68;45.62;101085.50;5073348;28;46122;-64
2021/09/11 11:19:28;;;;;;;;;2.00;2.00;;;;;23.56;45.30;101063.28;5073973;27;45460;-64
2021/09/11 11:21:55;;;;;;;;;3.00;3.00;;;;;23.34;45.92;101081.28;5076885;28;45593;-65
2021/09/11 11:24:21;;;;;;;;;1.50;1.50;;;;;23.29;45.77;101070.06;5077444;27;45441;-64